Bedford Corners, New York
Current Conditions -  °F | °C
As of 3:56 PM on Thursday 20 Nov 2014 (Local Time) from KHPN Reporting Station
Few Clouds Few Clouds  
Wind Chill: 36°   Ceiling: Unl
Heat Index: 42°   Visibility: 10mi
Dew Point: 19°   Wind: 10mph
Humidity: 40%   Direction: 270°W
Pressure: 29.82"   Gusts: NA
Location:  41.1974°N, 73.7198°W
Report Text: KHPN 202056Z 27009KT 10SM FEW040 06/M07 A2982 RMK AO2 SLP104 T00561072 55002
Loading
Personal Weather Stations






























Interactive Weather Map New forecast layout! Learn more

10-Day Weather Forecast

Advertisements
Track Severe Weather on mobile